ฉงชิ่ง, China

09:09 AM CST วัน สิงหาคม 30, 2016 (GMT +0800)
Jiangbei | | Change Station

Elev 1152 ft 29.52 °N, 106.48 °E | Updated 9 minutes ago

Light Rain
ฝนตกเบาบาง
68 ฟาเรนไฮน์
Feels Like 68 ฟาเรนไฮน์
N
7
ลม ความผันแปร ลม from ทางทิศเหนือและทิศตะวันออกเฉียงเหนือ

วันนี้
High -- | Low -- ฟาเรนไฮน์
--% Chance of Precip.
Yesterday
High -- | Low -- ฟาเรนไฮน์
Precip. -- นิ้ว
ความดัน 29.92 นิ้ว
ทัศนวิสัย 6.2 ไมล์
เมฆ
อุณหภูมิที่อากาศอาจจับตัวเป็นหยาดน้ำค้าง 63 ฟาเรนไฮน์
ความชื้น 83%
Rainfall 0.00 นิ้ว
Snow Depth Not available.
6:29 AM 7:18 PM
เดือนเสี้ยว, 6% visible
METAR ZUCK 300100Z 02003MPS 9999 -RA NSC 20/17 Q1013 NOSIG
ความดัน 29.92 นิ้ว
ทัศนวิสัย 6.2 ไมล์
เมฆ
อุณหภูมิที่อากาศอาจจับตัวเป็นหยาดน้ำค้าง 63 ฟาเรนไฮน์
ความชื้น 83%
Rainfall 0.00 นิ้ว
Snow Depth Not available.
6:29 AM 7:18 PM
เดือนเสี้ยว, 6% visible
METAR ZUCK 300100Z 02003MPS 9999 -RA NSC 20/17 Q1013 NOSIG

10-Day Weather Forecast

No radar image for this location.
×

Almanac

ดาราศาสตร์

Aug. 30, 2016 Rise Set
Actual Time
Civil Twilight
Nautical Twilight
Astronomical Twilight
Moon
Length Of Visible Light
ความยาวของวัน
Tomorrow will be .
, % of the Moon is Illuminated

Today's Extremes

Country Highs Country Lows

Community

WunderPhotos

Upload Photos

1,935,709 photos uploaded!

WunderBlog® & News

Nearby

Air Quality

  Air Quality AQ Index Pollutant
Not available.

Snow Depth

Station Depth Elevation

Earthquake Activity

City Distance Mag. Time & Date
Minimum magnitude displayed is 2.5.

Coastal Water Temperatures

สถานที่ อุณหภูมิ

Stations

Nearby Weather Stations

Station Location Temp ลมหนาว อุณหภูมิที่อากาศอาจจับตัวเป็นหยาดน้ำค้าง ความชื้น ลม Precip. Elev ปรับปรุงล่าสุด Type